createdAt,value
2022-10-26T00:04:38.498Z,11.63
2022-10-26T00:09:41.265Z,11.62
2022-10-26T00:14:43.981Z,11.64
2022-10-26T00:19:48.104Z,11.64
2022-10-26T00:24:50.849Z,11.64
2022-10-26T00:29:53.672Z,11.61
2022-10-26T00:35:06.066Z,11.58
2022-10-26T00:40:18.848Z,11.54
2022-10-26T00:45:23.864Z,11.43
2022-10-26T00:50:34.221Z,11.30
2022-10-26T00:55:41.006Z,11.23
2022-10-26T01:00:44.915Z,11.18
2022-10-26T01:05:50.516Z,11.12
2022-10-26T01:10:53.563Z,11.06
2022-10-26T01:16:08.908Z,11.00
2022-10-26T01:21:33.738Z,10.91
2022-10-26T01:26:54.980Z,10.81
2022-10-26T01:32:05.813Z,10.74
2022-10-26T01:37:12.581Z,10.69
2022-10-26T01:42:18.708Z,10.61
2022-10-26T01:47:24.969Z,10.56
2022-10-26T01:52:28.613Z,10.54
2022-10-26T01:57:36.038Z,10.47
2022-10-26T02:03:07.808Z,10.41
2022-10-26T02:08:28.423Z,10.34
2022-10-26T02:13:39.473Z,10.32
2022-10-26T02:18:50.226Z,10.28
2022-10-26T02:23:56.812Z,10.23
2022-10-26T02:29:04.041Z,10.14
2022-10-26T02:34:10.627Z,10.08
2022-10-26T02:39:15.650Z,10.06
2022-10-26T02:44:25.005Z,10.04
2022-10-26T02:49:29.827Z,10.02
2022-10-26T02:54:40.779Z,9.98
2022-10-26T02:59:47.536Z,9.88
2022-10-26T03:04:52.603Z,9.71
2022-10-26T03:09:55.281Z,9.63
2022-10-26T03:14:57.949Z,9.61
2022-10-26T03:20:02.020Z,9.62
2022-10-26T03:25:05.539Z,9.62
2022-10-26T03:30:09.905Z,9.62
2022-10-26T03:35:14.100Z,9.60
2022-10-26T03:40:17.099Z,9.64
2022-10-26T03:45:19.800Z,9.64
2022-10-26T03:50:24.011Z,9.62
2022-10-26T03:55:26.699Z,9.58
2022-10-26T04:00:29.576Z,9.57
2022-10-26T04:05:33.922Z,9.55
2022-10-26T04:10:36.630Z,9.51
2022-10-26T04:15:39.396Z,9.47
2022-10-26T04:20:43.479Z,9.42
2022-10-26T04:25:46.922Z,9.37
2022-10-26T04:30:49.590Z,9.32
2022-10-26T04:35:53.651Z,9.29
2022-10-26T04:40:56.342Z,9.25
2022-10-26T04:45:59.853Z,9.27
2022-10-26T04:51:03.910Z,9.27
2022-10-26T04:56:06.915Z,9.25
2022-10-26T05:01:09.646Z,9.23
2022-10-26T05:06:13.774Z,9.21
2022-10-26T05:11:16.534Z,9.19
2022-10-26T05:16:19.266Z,9.14
2022-10-26T05:21:23.347Z,9.08
2022-10-26T05:26:26.303Z,8.98
2022-10-26T05:31:29.212Z,8.92
2022-10-26T05:36:33.293Z,8.85
2022-10-26T05:41:35.992Z,8.81
2022-10-26T05:46:38.727Z,8.78
2022-10-26T05:51:42.910Z,8.85
2022-10-26T05:56:46.502Z,8.83
2022-10-26T06:02:01.625Z,8.82
2022-10-26T06:07:12.441Z,8.79
2022-10-26T06:12:19.339Z,8.73
2022-10-26T06:17:39.225Z,8.70
2022-10-26T06:23:01.290Z,8.70
2022-10-26T06:28:17.646Z,8.69
2022-10-26T06:33:35.774Z,8.68
2022-10-26T06:38:44.328Z,8.68
2022-10-26T06:43:47.794Z,8.70
2022-10-26T06:48:55.208Z,8.70
2022-10-26T06:54:03.709Z,8.73
2022-10-26T06:59:14.823Z,8.80
2022-10-26T07:04:17.516Z,8.84
2022-10-26T07:09:21.560Z,8.87
2022-10-26T07:14:24.252Z,8.92
2022-10-26T07:19:26.941Z,8.99
2022-10-26T07:24:31.685Z,9.11
2022-10-26T07:29:35.263Z,9.22
2022-10-26T07:34:38.003Z,9.37
2022-10-26T07:39:42.070Z,9.53
2022-10-26T07:44:44.898Z,9.71
2022-10-26T07:49:47.641Z,9.90
2022-10-26T07:54:51.731Z,10.06
2022-10-26T07:59:54.434Z,10.24
2022-10-26T08:04:57.137Z,10.45
2022-10-26T08:10:01.779Z,10.69
2022-10-26T08:15:05.089Z,10.91
2022-10-26T08:20:08.623Z,11.10
2022-10-26T08:25:14.410Z,11.26
2022-10-26T08:30:18.608Z,11.38
2022-10-26T08:35:21.285Z,11.61
2022-10-26T08:40:28.024Z,11.85
2022-10-26T08:45:37.080Z,12.07
2022-10-26T08:50:46.082Z,12.26
2022-10-26T08:55:55.727Z,12.48
2022-10-26T09:00:59.678Z,12.69
2022-10-26T09:06:25.166Z,12.92
2022-10-26T09:11:42.230Z,13.21
2022-10-26T09:16:55.792Z,13.48
2022-10-26T09:22:05.066Z,13.72
2022-10-26T09:27:17.601Z,13.96
2022-10-26T09:32:22.261Z,14.31
2022-10-26T09:37:28.550Z,14.59
2022-10-26T09:42:41.573Z,14.82
2022-10-26T09:47:51.284Z,15.09
2022-10-26T09:52:54.376Z,15.35
2022-10-26T09:58:02.534Z,15.58
2022-10-26T10:03:19.341Z,15.77
2022-10-26T10:08:23.799Z,15.90
2022-10-26T10:13:30.199Z,16.02
2022-10-26T10:18:33.853Z,16.12
2022-10-26T10:23:47.995Z,16.18
2022-10-26T10:29:03.787Z,16.26
2022-10-26T10:34:17.663Z,16.32
2022-10-26T10:39:37.453Z,16.39
2022-10-26T10:44:41.603Z,16.42
2022-10-26T10:49:59.374Z,16.43
2022-10-26T10:55:17.408Z,16.44
2022-10-26T11:00:26.150Z,16.48
2022-10-26T11:05:42.170Z,16.56
2022-10-26T11:10:55.685Z,16.60
2022-10-26T11:16:05.443Z,16.64
2022-10-26T11:21:20.290Z,16.67
2022-10-26T11:26:29.446Z,16.76
2022-10-26T11:31:40.098Z,16.77
2022-10-26T11:36:44.944Z,16.84
2022-10-26T11:41:52.267Z,16.95
2022-10-26T11:47:00.774Z,17.10
2022-10-26T11:52:11.349Z,17.19
2022-10-26T11:57:15.728Z,17.30
2022-10-26T12:02:22.361Z,17.45
2022-10-26T12:07:30.099Z,17.60
2022-10-26T12:12:38.675Z,17.66
2022-10-26T12:17:51.241Z,17.72
2022-10-26T12:22:54.299Z,17.81
2022-10-26T12:27:58.361Z,17.86
2022-10-26T12:33:03.894Z,17.97
2022-10-26T12:38:49.622Z,18.11
2022-10-26T12:43:57.341Z,18.22
2022-10-26T12:49:01.448Z,18.31
2022-10-26T12:54:18.875Z,18.41
2022-10-26T12:59:29.644Z,18.50
2022-10-26T13:04:58.598Z,18.58
2022-10-26T13:10:03.900Z,18.61
2022-10-26T13:15:19.519Z,18.62
2022-10-26T13:20:23.796Z,18.61
2022-10-26T13:25:28.959Z,18.61
2022-10-26T13:30:45.749Z,18.63
2022-10-26T13:35:52.410Z,18.68
2022-10-26T13:41:07.982Z,18.70
2022-10-26T13:46:25.106Z,18.69
2022-10-26T13:51:40.928Z,18.69
2022-10-26T13:56:54.417Z,18.66
2022-10-26T14:02:17.683Z,18.54
2022-10-26T14:07:24.719Z,18.46
2022-10-26T14:12:29.587Z,18.38
2022-10-26T14:17:32.457Z,18.29
2022-10-26T14:22:36.570Z,18.20
2022-10-26T14:27:40.315Z,18.13
2022-10-26T14:32:43.037Z,18.06
2022-10-26T14:37:52.425Z,18.03
2022-10-26T14:42:57.639Z,17.97
2022-10-26T14:48:01.400Z,17.90
2022-10-26T14:53:15.427Z,17.86
2022-10-26T14:58:23.101Z,17.85
2022-10-26T15:03:29.937Z,17.83
2022-10-26T15:08:57.371Z,17.77
2022-10-26T15:14:00.896Z,17.62
2022-10-26T15:19:10.712Z,17.45
2022-10-26T15:24:34.483Z,17.33
2022-10-26T15:29:43.193Z,17.19
2022-10-26T15:35:06.310Z,17.08
2022-10-26T15:40:11.321Z,16.98
2022-10-26T15:45:20.609Z,16.86
2022-10-26T15:50:25.374Z,16.77
2022-10-26T15:55:30.228Z,16.68
2022-10-26T16:00:33.016Z,16.63
2022-10-26T16:05:36.930Z,16.56
2022-10-26T16:10:41.259Z,16.49
2022-10-26T16:15:44.603Z,16.39
2022-10-26T16:20:47.372Z,16.31
2022-10-26T16:25:51.435Z,16.24
2022-10-26T16:31:00.107Z,16.14
2022-10-26T16:36:04.033Z,16.05
2022-10-26T16:41:09.796Z,15.97
2022-10-26T16:46:14.629Z,15.90
2022-10-26T16:51:18.746Z,15.82
2022-10-26T16:56:24.786Z,15.76
2022-10-26T17:01:27.761Z,15.73
2022-10-26T17:06:30.959Z,15.67
2022-10-26T17:11:35.122Z,15.64
2022-10-26T17:16:37.819Z,15.65
2022-10-26T17:21:40.546Z,15.59
2022-10-26T17:26:44.627Z,15.54
2022-10-26T17:31:47.327Z,15.46
2022-10-26T17:36:50.101Z,15.43
2022-10-26T17:41:54.306Z,15.36
2022-10-26T17:46:57.280Z,15.31
2022-10-26T17:51:59.975Z,15.22
2022-10-26T17:57:04.301Z,15.18
2022-10-26T18:02:07.451Z,15.12
2022-10-26T18:07:10.210Z,15.10
2022-10-26T18:12:14.300Z,15.06
2022-10-26T18:17:17.029Z,15.01
2022-10-26T18:22:19.952Z,14.94
2022-10-26T18:27:24.448Z,14.88
2022-10-26T18:32:27.388Z,14.83
2022-10-26T18:37:30.274Z,14.79
2022-10-26T18:42:34.601Z,14.75
2022-10-26T18:47:37.562Z,14.69
2022-10-26T18:52:40.289Z,14.60
2022-10-26T18:57:44.370Z,14.57
2022-10-26T19:02:51.503Z,14.54
2022-10-26T19:07:55.537Z,14.48
2022-10-26T19:13:01.113Z,14.38
2022-10-26T19:18:04.242Z,14.28
2022-10-26T19:23:07.140Z,14.20
2022-10-26T19:28:11.226Z,14.11
2022-10-26T19:33:13.977Z,14.05
2022-10-26T19:38:16.688Z,13.97
2022-10-26T19:43:20.781Z,13.91
2022-10-26T19:48:23.572Z,13.85
2022-10-26T19:53:26.508Z,13.81
2022-10-26T19:58:31.667Z,13.77
2022-10-26T20:03:34.695Z,13.77
2022-10-26T20:08:37.721Z,13.73
2022-10-26T20:13:41.905Z,13.68
2022-10-26T20:18:48.716Z,13.63
2022-10-26T20:23:51.898Z,13.62
2022-10-26T20:28:56.017Z,13.61
2022-10-26T20:33:58.715Z,13.58
2022-10-26T20:39:01.871Z,13.55
2022-10-26T20:44:06.729Z,13.53
2022-10-26T20:49:10.925Z,13.49
2022-10-26T20:54:21.081Z,13.49
2022-10-26T20:59:31.360Z,13.45
2022-10-26T21:04:34.115Z,13.42
2022-10-26T21:09:37.027Z,13.37
2022-10-26T21:14:41.409Z,13.32
2022-10-26T21:19:44.133Z,13.29
2022-10-26T21:24:46.937Z,13.20
2022-10-26T21:29:51.019Z,13.13
2022-10-26T21:34:53.699Z,13.07
2022-10-26T21:39:56.551Z,13.04
2022-10-26T21:45:00.629Z,13.00
2022-10-26T21:50:03.323Z,12.97
2022-10-26T21:55:07.106Z,12.89
2022-10-26T22:00:12.589Z,12.82
2022-10-26T22:05:15.507Z,12.78
2022-10-26T22:10:18.290Z,12.80
2022-10-26T22:15:22.342Z,12.77
2022-10-26T22:20:25.064Z,12.78
2022-10-26T22:25:27.751Z,12.74
2022-10-26T22:30:31.808Z,12.70
2022-10-26T22:35:34.509Z,12.64
2022-10-26T22:40:37.219Z,12.61
2022-10-26T22:45:41.275Z,12.60
2022-10-26T22:50:43.967Z,12.59
2022-10-26T22:55:47.137Z,12.54
2022-10-26T23:00:51.449Z,12.52
2022-10-26T23:05:54.140Z,12.49
2022-10-26T23:11:00.613Z,12.51
2022-10-26T23:16:07.648Z,12.53
2022-10-26T23:21:11.807Z,12.57
2022-10-26T23:26:16.330Z,12.63
2022-10-26T23:31:21.852Z,12.69
2022-10-26T23:36:24.928Z,12.69
2022-10-26T23:41:28.925Z,12.68
2022-10-26T23:46:32.994Z,12.65
2022-10-26T23:51:35.685Z,12.62
2022-10-26T23:56:38.392Z,12.62
